Time;durP1;ratioP1;P1;durP2;ratioP2;P2;SDS_P1;SDS_P2;PMS_P1;PMS_P2;Temp;Humidity;BMP_temperature;BMP_pressure;BME280_temperature;BME280_humidity;BME280_pressure;Samples;Min_cycle;Max_cycle;Signal;HPM_P1;HPM_P2
2022/05/20 00:00:09;;;;;;;16.30;7.63;;;;;;;;;;5010817;28;20150;-65
2022/05/20 00:02:36;;;;;;;;;;;;;;;;;;5030147;28;20307;-66
2022/05/20 00:05:02;;;;;;;16.05;7.63;;;;;;;;;;5028939;28;19932;-66
2022/05/20 00:07:28;;;;;;;15.95;8.18;;;;;;;;;;5029877;28;20064;-65
2022/05/20 00:09:54;;;;;;;18.83;8.68;;;;;;;;;;5009756;28;20140;-66
2022/05/20 00:12:20;;;;;;;21.30;8.95;;;;;;;;;;5008428;28;20049;-65
2022/05/20 00:14:46;;;;;;;16.45;8.82;;;;;;;;;;5009710;28;20093;-65
2022/05/20 00:17:13;;;;;;;20.02;8.95;;;;;;;;;;5015533;28;20105;-66
2022/05/20 00:19:39;;;;;;;;;;;;;;;;;;5027573;28;20045;-66
2022/05/20 00:22:05;;;;;;;18.95;9.70;;;;;;;;;;5011185;28;20340;-65
2022/05/20 00:24:32;;;;;;;17.08;9.55;;;;;;;;;;5013258;28;20383;-65
2022/05/20 00:26:58;;;;;;;18.13;9.95;;;;;;;;;;5028878;28;20472;-66
2022/05/20 00:29:25;;;;;;;17.92;9.27;;;;;;;;;;5027258;28;20045;-65
2022/05/20 00:31:51;;;;;;;21.17;9.90;;;;;;;;;;5020639;28;20485;-65
2022/05/20 00:34:18;;;;;;;18.35;9.43;;;;;;;;;;5028759;28;20045;-66
2022/05/20 00:36:44;;;;;;;16.08;9.88;;;;;;;;;;5026895;28;20507;-65
2022/05/20 00:39:10;;;;;;;19.77;10.80;;;;;;;;;;5027534;28;20045;-65
2022/05/20 00:41:36;;;;;;;16.73;10.18;;;;;;;;;;5023473;28;20148;-66
2022/05/20 00:44:02;;;;;;;21.55;11.18;;;;;;;;;;5007926;28;20050;-65
2022/05/20 00:46:28;;;;;;;20.10;10.80;;;;;;;;;;5020270;28;20094;-66
2022/05/20 00:48:54;;;;;;;;;;;;;;;;;;5027545;28;20504;-66
2022/05/20 00:51:22;;;;;;;20.10;12.32;;;;;;;;;;5008884;28;19924;-65
2022/05/20 00:54:03;;;;;;;21.13;12.27;;;;;;;;;;5007731;28;20426;-65
2022/05/20 00:56:33;;;;;;;21.45;12.65;;;;;;;;;;5008999;28;20384;-65
2022/05/20 00:58:59;;;;;;;21.98;13.93;;;;;;;;;;5008875;28;20058;-66
2022/05/20 01:01:26;;;;;;;21.58;14.57;;;;;;;;;;5016497;28;20090;-66
2022/05/20 01:03:54;;;;;;;24.27;14.38;;;;;;;;;;5010894;28;20494;-65
2022/05/20 01:06:20;;;;;;;21.60;14.45;;;;;;;;;;5008242;28;20473;-66
2022/05/20 01:08:46;;;;;;;21.98;13.95;;;;;;;;;;5027999;28;20144;-65
2022/05/20 01:11:12;;;;;;;20.65;13.95;;;;;;;;;;5015593;28;20057;-65
2022/05/20 01:13:39;;;;;;;23.35;14.45;;;;;;;;;;5007025;28;20169;-65
2022/05/20 01:16:08;;;;;;;25.92;15.00;;;;;;;;;;5017310;28;20072;-65
2022/05/20 01:18:35;;;;;;;22.80;14.18;;;;;;;;;;5028000;28;20038;-65
2022/05/20 01:21:02;;;;;;;20.92;14.02;;;;;;;;;;5021697;28;20086;-65
2022/05/20 01:23:28;;;;;;;;;;;;;;;;;;5007119;28;20108;-66
2022/05/20 01:25:55;;;;;;;25.10;14.77;;;;;;;;;;5008467;28;20345;-65
2022/05/20 01:28:22;;;;;;;27.05;16.13;;;;;;;;;;5022610;28;20050;-65
2022/05/20 01:30:50;;;;;;;24.33;15.68;;;;;;;;;;5024049;28;20056;-66
2022/05/20 01:33:35;;;;;;;23.83;15.45;;;;;;;;;;5019712;28;20147;-66
2022/05/20 01:36:02;;;;;;;22.98;16.00;;;;;;;;;;5007969;28;20050;-65
2022/05/20 01:38:28;;;;;;;25.05;16.42;;;;;;;;;;5006974;28;20146;-65
2022/05/20 01:40:55;;;;;;;;;;;;;;;;;;5008544;28;20140;-65
2022/05/20 01:43:40;;;;;;;29.02;16.90;;;;;;;;;;5020495;28;19952;-66
2022/05/20 01:46:06;;;;;;;26.60;16.67;;;;;;;;;;5008382;28;20336;-65
2022/05/20 01:48:35;;;;;;;25.05;17.05;;;;;;;;;;5007824;28;20049;-65
2022/05/20 01:51:03;;;;;;;27.48;16.73;;;;;;;;;;5014934;28;20124;-65
2022/05/20 01:53:39;;;;;;;25.77;16.60;;;;;;;;;;5005705;28;20111;-66
2022/05/20 01:56:31;;;;;;;26.80;16.83;;;;;;;;;;5007918;28;20053;-65
2022/05/20 01:59:02;;;;;;;28.00;15.80;;;;;;;;;;4985514;28;20054;-65
2022/05/20 02:01:48;;;;;;;27.92;16.58;;;;;;;;;;5013285;28;20049;-66
2022/05/20 02:04:19;;;;;;;25.20;16.77;;;;;;;;;;4971062;28;20060;-65
2022/05/20 02:06:49;;;;;;;26.95;17.42;;;;;;;;;;5027917;28;20104;-65
2022/05/20 02:09:17;;;;;;;29.20;16.92;;;;;;;;;;5027223;28;20084;-65
2022/05/20 02:11:43;;;;;;;25.13;16.88;;;;;;;;;;5028021;28;20065;-65
2022/05/20 02:14:20;;;;;;;27.25;17.13;;;;;;;;;;5012621;28;20328;-66
2022/05/20 02:16:46;;;;;;;;;;;;;;;;;;5022193;28;20054;-66
2022/05/20 02:19:23;;;;;;;28.70;16.58;;;;;;;;;;5029472;28;19921;-65
2022/05/20 02:21:56;;;;;;;26.17;16.95;;;;;;;;;;5031756;28;20114;-66
2022/05/20 02:24:24;;;;;;;26.45;17.88;;;;;;;;;;5011073;28;20616;-66
2022/05/20 02:26:53;;;;;;;26.10;17.33;;;;;;;;;;5011733;28;20132;-66
2022/05/20 02:29:22;;;;;;;29.23;17.52;;;;;;;;;;5011383;28;20061;-65
2022/05/20 02:31:54;;;;;;;27.30;17.67;;;;;;;;;;5011853;28;20057;-65
2022/05/20 02:34:20;;;;;;;28.38;17.77;;;;;;;;;;5012697;28;20087;-65
2022/05/20 02:36:47;;;;;;;28.10;18.20;;;;;;;;;;5029938;28;20045;-65
2022/05/20 02:39:16;;;;;;;27.23;16.67;;;;;;;;;;5031546;28;20049;-65
2022/05/20 02:41:46;;;;;;;30.95;17.58;;;;;;;;;;5031349;28;20115;-65
2022/05/20 02:44:12;;;;;;;28.73;17.05;;;;;;;;;;5018887;28;20061;-66
2022/05/20 02:46:39;;;;;;;29.35;16.60;;;;;;;;;;5028381;28;20045;-66
2022/05/20 02:49:06;;;;;;;29.02;17.13;;;;;;;;;;5029401;28;20105;-65
2022/05/20 02:51:32;;;;;;;27.52;17.48;;;;;;;;;;5030839;28;20227;-66
2022/05/20 02:53:58;;;;;;;28.45;17.77;;;;;;;;;;5024673;28;20057;-66
2022/05/20 02:56:25;;;;;;;29.55;17.13;;;;;;;;;;5024999;28;20463;-65
2022/05/20 03:04:21;;;;;;;26.27;18.08;;;;;;;;;;5023894;28;20126;-66
2022/05/20 03:06:48;;;;;;;28.77;16.98;;;;;;;;;;5011049;28;20053;-65
2022/05/20 03:09:16;;;;;;;28.52;17.02;;;;;;;;;;5010898;28;20180;-65
2022/05/20 03:11:42;;;;;;;26.77;17.20;;;;;;;;;;5010451;28;20065;-65
2022/05/20 03:14:09;;;;;;;32.25;17.95;;;;;;;;;;5010832;28;20049;-65
2022/05/20 03:16:36;;;;;;;26.38;16.52;;;;;;;;;;5013512;28;20107;-66
2022/05/20 03:19:02;;;;;;;25.88;17.50;;;;;;;;;;5030616;28;20072;-66
2022/05/20 03:21:28;;;;;;;28.77;17.80;;;;;;;;;;5030122;28;20053;-66
2022/05/20 03:23:55;;;;;;;27.98;17.55;;;;;;;;;;5014653;28;20477;-65
2022/05/20 03:26:21;;;;;;;;;;;;;;;;;;5018472;28;20041;-66
2022/05/20 03:28:47;;;;;;;28.42;17.75;;;;;;;;;;5020543;28;20342;-66
2022/05/20 03:31:13;;;;;;;;;;;;;;;;;;5010597;28;20050;-65
2022/05/20 03:33:40;;;;;;;27.02;17.65;;;;;;;;;;5024339;28;20245;-66
2022/05/20 03:36:07;;;;;;;32.88;19.60;;;;;;;;;;5027642;28;20473;-66
2022/05/20 03:38:33;;;;;;;30.60;17.55;;;;;;;;;;5028535;28;20045;-66
2022/05/20 03:40:59;;;;;;;;;;;;;;;;;;5029523;28;20049;-66
2022/05/20 03:43:26;;;;;;;32.28;20.00;;;;;;;;;;5024767;28;19982;-66
2022/05/20 03:45:52;;;;;;;31.58;19.63;;;;;;;;;;5008253;28;20462;-66
2022/05/20 03:48:19;;;;;;;32.95;19.77;;;;;;;;;;5010115;28;20426;-66
2022/05/20 03:50:45;;;;;;;37.08;19.75;;;;;;;;;;5018203;28;20056;-66
2022/05/20 03:53:11;;;;;;;31.30;19.88;;;;;;;;;;5008887;28;20057;-65
2022/05/20 03:55:37;;;;;;;29.42;18.70;;;;;;;;;;5010166;28;20124;-66
2022/05/20 03:58:03;;;;;;;31.02;20.13;;;;;;;;;;5014810;28;20046;-65
2022/05/20 04:00:29;;;;;;;31.42;19.83;;;;;;;;;;5008016;28;20456;-66
2022/05/20 04:02:55;;;;;;;31.92;21.17;;;;;;;;;;5008559;28;20133;-66
2022/05/20 04:05:22;;;;;;;32.75;20.73;;;;;;;;;;5007483;28;20042;-66
2022/05/20 04:07:48;;;;;;;31.95;21.60;;;;;;;;;;5006931;28;20469;-66
2022/05/20 04:10:14;;;;;;;30.95;20.83;;;;;;;;;;5008121;28;20069;-66
2022/05/20 04:12:43;;;;;;;;;;;;;;;;;;5006643;28;20122;-66
2022/05/20 04:15:14;;;;;;;29.95;20.52;;;;;;;;;;5007436;28;20391;-66
2022/05/20 04:17:40;;;;;;;33.60;21.02;;;;;;;;;;5007801;28;20061;-66
2022/05/20 04:20:06;;;;;;;;;;;;;;;;;;5026620;28;20461;-65
2022/05/20 04:22:34;;;;;;;32.08;20.75;;;;;;;;;;5022931;28;19944;-66
2022/05/20 04:25:00;;;;;;;35.03;22.75;;;;;;;;;;5021275;28;20085;-65
2022/05/20 04:27:29;;;;;;;33.47;22.05;;;;;;;;;;5017187;28;20544;-65
2022/05/20 04:29:55;;;;;;;31.75;22.08;;;;;;;;;;4988789;28;20050;-65
2022/05/20 04:32:21;;;;;;;;;;;;;;;;;;4988505;28;20463;-65
2022/05/20 04:34:47;;;;;;;32.13;22.42;;;;;;;;;;5005338;28;19925;-66
2022/05/20 04:37:14;;;;;;;36.78;23.10;;;;;;;;;;5006592;28;20046;-65
2022/05/20 04:39:40;;;;;;;34.78;23.75;;;;;;;;;;5010841;28;20077;-65
2022/05/20 04:47:35;;;;;;;33.35;24.13;;;;;;;;;;5007630;28;20347;-66
2022/05/20 04:50:01;;;;;;;;;;;;;;;;;;5015698;28;20426;-66
2022/05/20 04:52:27;;;;;;;35.13;23.40;;;;;;;;;;5006411;28;19925;-66
2022/05/20 04:54:54;;;;;;;34.13;23.23;;;;;;;;;;5024266;28;20042;-66
2022/05/20 04:57:30;;;;;;;31.67;22.50;;;;;;;;;;5007545;28;20480;-65
2022/05/20 04:59:58;;;;;;;;;;;;;;;;;;5007239;28;20046;-66
2022/05/20 05:02:24;;;;;;;37.03;24.15;;;;;;;;;;5011674;28;19921;-66
2022/05/20 05:04:50;;;;;;;33.30;21.58;;;;;;;;;;5007174;28;20469;-65
2022/05/20 05:07:16;;;;;;;32.85;22.77;;;;;;;;;;5024068;28;20450;-65
2022/05/20 05:09:43;;;;;;;35.33;23.60;;;;;;;;;;5024095;28;20366;-66
2022/05/20 05:12:10;;;;;;;34.72;24.02;;;;;;;;;;5018144;28;20141;-66
2022/05/20 05:14:41;;;;;;;35.55;23.65;;;;;;;;;;5017781;28;20045;-65
2022/05/20 05:17:08;;;;;;;36.15;23.83;;;;;;;;;;5025299;28;20124;-66
2022/05/20 05:19:35;;;;;;;34.10;22.15;;;;;;;;;;5027533;28;20068;-66
2022/05/20 05:22:01;;;;;;;31.63;23.08;;;;;;;;;;5021990;28;20111;-65
2022/05/20 05:24:28;;;;;;;33.75;22.48;;;;;;;;;;5005127;28;20132;-66
2022/05/20 05:26:54;;;;;;;33.55;22.42;;;;;;;;;;5007894;28;20052;-66
2022/05/20 05:29:26;;;;;;;35.65;23.50;;;;;;;;;;5010239;28;20050;-66
2022/05/20 05:31:52;;;;;;;32.70;22.50;;;;;;;;;;5006755;28;20050;-66
2022/05/20 05:34:18;;;;;;;35.97;22.10;;;;;;;;;;5005771;28;20088;-65
2022/05/20 05:36:44;;;;;;;32.05;21.73;;;;;;;;;;5007025;28;20045;-65
2022/05/20 05:39:10;;;;;;;31.67;21.92;;;;;;;;;;5007448;28;20045;-66
2022/05/20 05:41:36;;;;;;;32.50;23.00;;;;;;;;;;5007521;28;20062;-66
2022/05/20 05:44:03;;;;;;;30.55;22.15;;;;;;;;;;5004846;28;20074;-65
2022/05/20 05:46:30;;;;;;;36.65;22.42;;;;;;;;;;5006364;28;20449;-66
2022/05/20 05:48:56;;;;;;;31.13;21.05;;;;;;;;;;5011257;28;20110;-66
2022/05/20 05:51:23;;;;;;;30.10;22.27;;;;;;;;;;5021490;28;20046;-66
2022/05/20 05:53:49;;;;;;;33.17;21.55;;;;;;;;;;5026358;28;20064;-66
2022/05/20 05:56:15;;;;;;;32.25;21.98;;;;;;;;;;5008212;28;20148;-66
2022/05/20 05:58:41;;;;;;;36.20;21.35;;;;;;;;;;5002152;28;20038;-66
2022/05/20 06:01:07;;;;;;;30.58;21.27;;;;;;;;;;5011106;28;20531;-65
2022/05/20 06:03:34;;;;;;;34.50;21.17;;;;;;;;;;5007407;28;20118;-66
2022/05/20 06:06:00;;;;;;;32.47;20.67;;;;;;;;;;5005099;28;20227;-65
2022/05/20 06:08:26;;;;;;;31.80;20.85;;;;;;;;;;5006902;28;20497;-66
2022/05/20 06:10:52;;;;;;;30.65;20.55;;;;;;;;;;5022488;28;20183;-65
2022/05/20 06:13:22;;;;;;;35.75;19.80;;;;;;;;;;5026797;28;20068;-65
2022/05/20 06:15:49;;;;;;;32.80;19.42;;;;;;;;;;5016738;28;20042;-65
2022/05/20 06:18:15;;;;;;;31.92;18.20;;;;;;;;;;5019501;28;20049;-66
2022/05/20 06:20:41;;;;;;;28.52;18.20;;;;;;;;;;5016113;28;20129;-66
2022/05/20 06:23:07;;;;;;;29.77;18.65;;;;;;;;;;5017133;28;20046;-66
2022/05/20 06:25:33;;;;;;;28.60;17.10;;;;;;;;;;5002744;28;20057;-65
2022/05/20 06:28:06;;;;;;;28.58;16.83;;;;;;;;;;5003032;28;20046;-65
2022/05/20 06:30:32;;;;;;;31.45;16.17;;;;;;;;;;5010831;28;20050;-66
2022/05/20 06:32:58;;;;;;;23.73;16.25;;;;;;;;;;5003502;28;20581;-66
2022/05/20 06:40:55;;;;;;;28.85;14.45;;;;;;;;;;5005982;28;20139;-67
2022/05/20 06:43:22;;;;;;;21.85;13.27;;;;;;;;;;5016022;28;20050;-67
2022/05/20 06:45:52;;;;;;;22.52;12.60;;;;;;;;;;5006546;28;20087;-67
2022/05/20 06:48:18;;;;;;;22.63;13.38;;;;;;;;;;5009727;28;20204;-66
2022/05/20 06:50:44;;;;;;;25.90;12.32;;;;;;;;;;5010267;28;20100;-68
2022/05/20 06:53:11;;;;;;;19.23;11.02;;;;;;;;;;5021201;28;20165;-67
2022/05/20 06:55:37;;;;;;;21.83;10.57;;;;;;;;;;5006616;28;20050;-69
2022/05/20 06:58:04;;;;;;;21.20;10.90;;;;;;;;;;5013304;28;20085;-68
2022/05/20 07:00:30;;;;;;;;;;;;;;;;;;5024471;28;20172;-67
2022/05/20 07:02:56;;;;;;;21.17;10.85;;;;;;;;;;5011284;28;19969;-67
2022/05/20 07:05:22;;;;;;;21.55;11.38;;;;;;;;;;5004235;28;20037;-67
2022/05/20 07:07:48;;;;;;;20.98;11.18;;;;;;;;;;5004429;28;20046;-68
2022/05/20 07:10:15;;;;;;;22.65;10.88;;;;;;;;;;4988852;28;20072;-67
2022/05/20 07:12:41;;;;;;;14.52;9.02;;;;;;;;;;4993078;28;20211;-67
2022/05/20 07:15:07;;;;;;;;;;;;;;;;;;5008457;28;20418;-67
2022/05/20 07:17:34;;;;;;;17.48;8.75;;;;;;;;;;5009398;28;19929;-67
2022/05/20 07:20:00;;;;;;;18.23;10.15;;;;;;;;;;5008845;28;20072;-69
2022/05/20 07:22:26;;;;;;;21.05;10.60;;;;;;;;;;5009376;28;20431;-69
2022/05/20 07:24:52;;;;;;;22.23;10.68;;;;;;;;;;5007888;28;20442;-69
2022/05/20 07:27:18;;;;;;;24.17;10.98;;;;;;;;;;5009041;28;20146;-67
2022/05/20 07:29:44;;;;;;;18.75;10.70;;;;;;;;;;5009998;28;20118;-67
2022/05/20 07:32:11;;;;;;;18.33;9.45;;;;;;;;;;5009923;28;20399;-67
2022/05/20 07:34:36;;;;;;;;;;;;;;;;;;5009006;28;20048;-67
2022/05/20 07:37:03;;;;;;;21.65;9.48;;;;;;;;;;5022679;28;20025;-67
2022/05/20 07:39:29;;;;;;;20.25;8.75;;;;;;;;;;5009061;28;20065;-67
2022/05/20 07:41:55;;;;;;;17.45;8.45;;;;;;;;;;5008628;28;20073;-69
2022/05/20 07:44:21;;;;;;;18.35;8.30;;;;;;;;;;5009097;28;20099;-67
2022/05/20 07:46:47;;;;;;;17.10;7.65;;;;;;;;;;5007278;28;20377;-69
2022/05/20 07:49:14;;;;;;;15.88;7.72;;;;;;;;;;5008662;28;20630;-69
2022/05/20 07:51:42;;;;;;;13.75;7.60;;;;;;;;;;5009254;28;20080;-69
2022/05/20 07:54:15;;;;;;;19.65;8.20;;;;;;;;;;5008296;28;20171;-69
2022/05/20 07:56:49;;;;;;;19.35;8.95;;;;;;;;;;5008207;28;20475;-70
2022/05/20 07:59:28;;;;;;;18.42;8.90;;;;;;;;;;5007665;28;20133;-69
2022/05/20 08:01:55;;;;;;;17.58;7.65;;;;;;;;;;5008636;28;20398;-71
2022/05/20 08:07:18;;;;;;;16.08;7.57;;;;;;;;;;5007055;28;20054;-74
2022/05/20 08:09:44;;;;;;;16.80;8.02;;;;;;;;;;5008520;28;20064;-69
2022/05/20 08:12:11;;;;;;;17.48;6.90;;;;;;;;;;5007810;28;20218;-68
2022/05/20 08:14:37;;;;;;;13.38;5.82;;;;;;;;;;5008827;28;20136;-67
2022/05/20 08:17:03;;;;;;;13.93;5.38;;;;;;;;;;5007629;28;20152;-71
2022/05/20 08:19:30;;;;;;;11.52;5.18;;;;;;;;;;5007085;28;20374;-68
2022/05/20 08:21:56;;;;;;;15.68;5.22;;;;;;;;;;5008495;28;20466;-68
2022/05/20 08:24:22;;;;;;;13.40;5.15;;;;;;;;;;5007789;28;20104;-69
2022/05/20 08:26:48;;;;;;;;;;;;;;;;;;5006895;28;20057;-69
2022/05/20 08:29:14;;;;;;;11.85;4.68;;;;;;;;;;5006273;28;19944;-70
2022/05/20 08:31:41;;;;;;;12.57;5.45;;;;;;;;;;5008338;28;20076;-69
2022/05/20 08:34:07;;;;;;;13.20;5.50;;;;;;;;;;5022327;28;20065;-71
2022/05/20 08:36:35;;;;;;;20.33;6.65;;;;;;;;;;5008084;28;20050;-71
2022/05/20 08:39:01;;;;;;;13.85;5.72;;;;;;;;;;5007102;28;20045;-72
2022/05/20 08:41:27;;;;;;;;;;;;;;;;;;5006403;28;20131;-72
2022/05/20 08:43:53;;;;;;;15.85;6.13;;;;;;;;;;5007654;28;19925;-72
2022/05/20 08:46:21;;;;;;;13.80;5.20;;;;;;;;;;5005430;28;20092;-72
2022/05/20 08:48:50;;;;;;;12.30;5.32;;;;;;;;;;5007663;28;20585;-71
2022/05/20 08:51:16;;;;;;;14.52;5.57;;;;;;;;;;5005098;28;20161;-72
2022/05/20 08:53:44;;;;;;;12.98;4.82;;;;;;;;;;5005943;28;20054;-77
2022/05/20 08:56:12;;;;;;;14.38;5.40;;;;;;;;;;5007065;28;20042;-72
2022/05/20 08:58:41;;;;;;;13.02;5.50;;;;;;;;;;5007179;28;20413;-70
2022/05/20 09:01:08;;;;;;;15.25;5.25;;;;;;;;;;5006643;28;20046;-73
2022/05/20 09:03:35;;;;;;;15.50;5.57;;;;;;;;;;5007271;28;20358;-73
2022/05/20 09:06:05;;;;;;;13.93;5.40;;;;;;;;;;5007177;28;20231;-72
2022/05/20 09:08:33;;;;;;;13.20;5.72;;;;;;;;;;5006609;28;20062;-70
2022/05/20 09:11:00;;;;;;;14.18;4.97;;;;;;;;;;5005447;28;20470;-71
2022/05/20 09:16:23;;;;;;;13.73;5.30;;;;;;;;;;5006356;28;20459;-69
2022/05/20 09:18:51;;;;;;;14.05;5.63;;;;;;;;;;5007270;28;20131;-70
2022/05/20 09:21:25;;;;;;;15.05;5.90;;;;;;;;;;5004823;28;20117;-71
2022/05/20 09:23:53;;;;;;;16.08;6.00;;;;;;;;;;5005489;28;20125;-72
2022/05/20 09:26:30;;;;;;;16.70;5.15;;;;;;;;;;5006454;28;20108;-73
2022/05/20 09:29:06;;;;;;;13.07;5.90;;;;;;;;;;5006820;28;20163;-75
2022/05/20 09:31:39;;;;;;;14.25;5.00;;;;;;;;;;5007016;28;20065;-74
2022/05/20 09:34:24;;;;;;;14.68;5.47;;;;;;;;;;5019030;28;20490;-70
2022/05/20 09:36:51;;;;;;;17.30;5.70;;;;;;;;;;5006746;28;20101;-72
2022/05/20 09:39:24;;;;;;;17.02;5.32;;;;;;;;;;5006113;28;20065;-72
2022/05/20 09:41:52;;;;;;;13.48;5.25;;;;;;;;;;5006357;28;20061;-73
2022/05/20 09:44:20;;;;;;;10.77;4.47;;;;;;;;;;5002982;28;20384;-73
2022/05/20 09:46:59;;;;;;;13.32;5.03;;;;;;;;;;5006345;28;20139;-73
2022/05/20 09:49:27;;;;;;;12.98;5.32;;;;;;;;;;5006174;28;20069;-73
2022/05/20 09:51:55;;;;;;;14.23;5.15;;;;;;;;;;4985732;28;20434;-73
2022/05/20 09:54:41;;;;;;;12.25;4.05;;;;;;;;;;4986122;28;20046;-74
2022/05/20 09:57:11;;;;;;;14.60;4.40;;;;;;;;;;4985057;28;20114;-72
2022/05/20 09:59:41;;;;;;;12.98;4.78;;;;;;;;;;4993907;28;20120;-72
2022/05/20 10:02:14;;;;;;;11.77;3.95;;;;;;;;;;5006577;28;20049;-71
2022/05/20 10:04:58;;;;;;;12.30;4.07;;;;;;;;;;5006628;28;20041;-70
2022/05/20 10:07:44;;;;;;;10.27;3.70;;;;;;;;;;5006048;28;20133;-71
2022/05/20 10:10:17;;;;;;;12.13;4.17;;;;;;;;;;4998490;28;20401;-73
2022/05/20 10:12:44;;;;;;;12.32;3.30;;;;;;;;;;5005996;28;20363;-75
2022/05/20 10:15:15;;;;;;;10.65;3.60;;;;;;;;;;5006256;28;20042;-72
2022/05/20 10:17:41;;;;;;;11.27;3.78;;;;;;;;;;5006371;28;20405;-74
2022/05/20 10:20:14;;;;;;;9.93;3.72;;;;;;;;;;5005551;28;20072;-75
2022/05/20 10:22:40;;;;;;;11.93;3.70;;;;;;;;;;5006353;28;20060;-73
2022/05/20 10:25:07;;;;;;;;;;;;;;;;;;5006596;28;20068;-71
2022/05/20 10:27:42;;;;;;;13.48;4.65;;;;;;;;;;5005730;28;19917;-72
2022/05/20 10:33:02;;;;;;;12.70;4.05;;;;;;;;;;5006034;28;20141;-74
2022/05/20 10:35:37;;;;;;;11.93;4.28;;;;;;;;;;5005325;28;20060;-73
2022/05/20 10:38:03;;;;;;;14.25;5.55;;;;;;;;;;5010276;28;20038;-72
2022/05/20 10:40:47;;;;;;;15.18;6.45;;;;;;;;;;5008603;28;20192;-73
2022/05/20 10:43:32;;;;;;;13.02;5.70;;;;;;;;;;5011167;28;20141;-72
2022/05/20 10:49:02;;;;;;;13.07;6.07;;;;;;;;;;5009772;28;20045;-74
2022/05/20 10:51:34;;;;;;;15.48;5.95;;;;;;;;;;5007631;28;20054;-69
2022/05/20 10:54:06;;;;;;;13.50;5.68;;;;;;;;;;5009480;28;20056;-73
2022/05/20 10:56:51;;;;;;;14.48;5.80;;;;;;;;;;5009307;28;20339;-72
2022/05/20 10:59:36;;;;;;;14.02;5.40;;;;;;;;;;5008244;28;20094;-73
2022/05/20 11:02:20;;;;;;;14.52;5.60;;;;;;;;;;5009557;28;20343;-72
2022/05/20 11:05:05;;;;;;;14.38;5.80;;;;;;;;;;5009767;28;20111;-72
2022/05/20 11:07:51;;;;;;;13.63;5.00;;;;;;;;;;5008992;28;20057;-68
2022/05/20 11:10:17;;;;;;;16.13;6.90;;;;;;;;;;5008321;28;20049;-72
2022/05/20 11:13:02;;;;;;;15.10;5.82;;;;;;;;;;5007596;28;20054;-71
2022/05/20 11:15:28;;;;;;;13.82;5.57;;;;;;;;;;5008504;28;20522;-75
2022/05/20 11:17:57;;;;;;;13.45;6.07;;;;;;;;;;5009330;28;20509;-72
2022/05/20 11:20:33;;;;;;;15.48;5.82;;;;;;;;;;5008772;28;20061;-71
2022/05/20 11:23:06;;;;;;;14.05;5.68;;;;;;;;;;5008113;28;20104;-71
2022/05/20 11:25:51;;;;;;;14.77;5.68;;;;;;;;;;5008291;28;20081;-74
2022/05/20 11:28:36;;;;;;;13.95;5.78;;;;;;;;;;5007309;28;20042;-74
2022/05/20 11:31:02;;;;;;;12.73;6.13;;;;;;;;;;5009128;28;20136;-72
2022/05/20 11:33:46;;;;;;;12.60;5.40;;;;;;;;;;5006185;28;20152;-73
2022/05/20 11:36:19;;;;;;;14.75;6.03;;;;;;;;;;5009201;28;20062;-74
2022/05/20 11:39:04;;;;;;;14.18;5.90;;;;;;;;;;5008376;28;20124;-76
2022/05/20 11:41:40;;;;;;;12.68;5.07;;;;;;;;;;5008095;28;20046;-67
2022/05/20 11:44:22;;;;;;;12.65;4.80;;;;;;;;;;5007489;28;20046;-71
2022/05/20 11:47:21;;;;;;;12.38;5.00;;;;;;;;;;5008427;28;20454;-72
2022/05/20 11:50:05;;;;;;;13.38;5.10;;;;;;;;;;4985547;28;20054;-74
2022/05/20 11:52:31;;;;;;;13.48;5.13;;;;;;;;;;5008143;28;20130;-74
2022/05/20 11:54:57;;;;;;;;;;;;;;;;;;5009695;28;20141;-77
2022/05/20 11:57:26;;;;;;;11.13;4.28;;;;;;;;;;5010520;28;19980;-73
2022/05/20 12:00:19;;;;;;;13.02;5.40;;;;;;;;;;5007342;28;20400;-75
2022/05/20 12:03:07;;;;;;;13.45;5.88;;;;;;;;;;5004070;28;20611;-73
2022/05/20 12:05:37;;;;;;;12.88;6.30;;;;;;;;;;5006730;28;20125;-75
2022/05/20 12:08:03;;;;;;;11.70;5.07;;;;;;;;;;5008252;28;20152;-74
2022/05/20 12:10:32;;;;;;;13.10;5.40;;;;;;;;;;5007803;28;20111;-77
2022/05/20 12:13:08;;;;;;;14.70;5.40;;;;;;;;;;5008140;28;20061;-74
2022/05/20 12:15:41;;;;;;;13.77;5.85;;;;;;;;;;5006646;28;20121;-75
2022/05/20 12:24:13;;;;;;;12.75;4.35;;;;;;;;;;4986524;28;20068;-75
2022/05/20 12:26:50;;;;;;;10.68;4.78;;;;;;;;;;5006096;28;20068;-75
2022/05/20 12:29:35;;;;;;;12.27;4.88;;;;;;;;;;5006512;28;20041;-74
2022/05/20 12:32:21;;;;;;;11.65;5.63;;;;;;;;;;5006011;28;20045;-74
2022/05/20 12:35:05;;;;;;;12.82;5.10;;;;;;;;;;5007349;28;20136;-75
2022/05/20 12:37:43;;;;;;;13.20;5.85;;;;;;;;;;5006816;28;20124;-73
2022/05/20 12:40:24;;;;;;;14.23;6.63;;;;;;;;;;5007398;28;20046;-75
2022/05/20 12:43:02;;;;;;;13.95;6.90;;;;;;;;;;5006426;28;20049;-78
2022/05/20 12:45:31;;;;;;;14.25;6.93;;;;;;;;;;5006124;28;20430;-74
2022/05/20 12:47:57;;;;;;;14.02;7.60;;;;;;;;;;5005949;28;20390;-76
2022/05/20 12:50:26;;;;;;;16.73;7.28;;;;;;;;;;5006870;28;20436;-73
2022/05/20 12:53:03;;;;;;;15.70;9.10;;;;;;;;;;5004481;28;20066;-78
2022/05/20 12:55:34;;;;;;;18.30;9.23;;;;;;;;;;5005936;28;20085;-72
2022/05/20 12:58:03;;;;;;;16.65;9.57;;;;;;;;;;5006920;28;20057;-69
2022/05/20 13:00:40;;;;;;;15.23;8.80;;;;;;;;;;5005914;28;20046;-71
2022/05/20 13:03:21;;;;;;;17.85;9.70;;;;;;;;;;5007469;28;20045;-71
2022/05/20 13:05:50;;;;;;;18.10;9.65;;;;;;;;;;5006774;28;20188;-75
2022/05/20 13:08:21;;;;;;;16.33;9.18;;;;;;;;;;5006839;28;20128;-73
2022/05/20 13:10:48;;;;;;;13.85;7.40;;;;;;;;;;5005730;28;20177;-75
2022/05/20 13:13:16;;;;;;;15.02;8.10;;;;;;;;;;5007305;28;20050;-77
2022/05/20 13:15:48;;;;;;;17.67;8.18;;;;;;;;;;5006353;28;20085;-74
2022/05/20 13:18:18;;;;;;;18.38;8.07;;;;;;;;;;5007292;28;20093;-73
2022/05/20 13:20:45;;;;;;;13.80;7.22;;;;;;;;;;5005519;28;20167;-74
2022/05/20 13:23:16;;;;;;;14.13;8.07;;;;;;;;;;5007143;28;20449;-74
2022/05/20 13:25:43;;;;;;;15.48;7.15;;;;;;;;;;5006610;28;20183;-74
2022/05/20 13:28:10;;;;;;;13.30;6.70;;;;;;;;;;5006667;28;20160;-76
2022/05/20 13:30:36;;;;;;;13.10;5.85;;;;;;;;;;5004100;28;20084;-74
2022/05/20 13:33:04;;;;;;;17.73;6.35;;;;;;;;;;4989358;28;20061;-76
2022/05/20 13:35:30;;;;;;;15.32;6.22;;;;;;;;;;5006795;28;20052;-79
2022/05/20 13:37:59;;;;;;;14.25;7.15;;;;;;;;;;5005885;28;20058;-74
2022/05/20 13:40:39;;;;;;;16.42;7.88;;;;;;;;;;5006798;28;20076;-77
2022/05/20 13:43:08;;;;;;;16.45;6.95;;;;;;;;;;5006210;28;20132;-74
2022/05/20 13:51:12;;;;;;;11.93;5.57;;;;;;;;;;4986488;28;20485;-71
2022/05/20 13:53:38;;;;;;;;;;;;;;;;;;4999990;28;20050;-72
2022/05/20 13:56:11;;;;;;;12.25;5.45;;;;;;;;;;5011435;28;20301;-69
2022/05/20 13:58:40;;;;;;;13.10;7.15;;;;;;;;;;5005289;28;20426;-76
2022/05/20 14:01:10;;;;;;;11.45;6.30;;;;;;;;;;5007270;28;20102;-75
2022/05/20 14:03:41;;;;;;;13.43;7.53;;;;;;;;;;5005784;28;20065;-72
2022/05/20 14:06:14;;;;;;;14.07;8.27;;;;;;;;;;5005465;28;20076;-72
2022/05/20 14:08:45;;;;;;;16.77;8.93;;;;;;;;;;5008723;28;20122;-69
2022/05/20 14:11:13;;;;;;;16.40;9.45;;;;;;;;;;5012447;28;20137;-71
2022/05/20 14:13:40;;;;;;;15.90;9.20;;;;;;;;;;5012682;28;20417;-70
2022/05/20 14:16:15;;;;;;;20.13;9.32;;;;;;;;;;5012407;28;20050;-71
2022/05/20 14:18:42;;;;;;;18.23;9.48;;;;;;;;;;5013034;28;20099;-70
2022/05/20 14:21:11;;;;;;;17.88;8.50;;;;;;;;;;5011720;28;20060;-72
2022/05/20 14:23:45;;;;;;;19.52;9.40;;;;;;;;;;5012297;28;20136;-72
2022/05/20 14:26:18;;;;;;;18.00;9.23;;;;;;;;;;5014869;28;20041;-72
2022/05/20 14:28:48;;;;;;;17.75;10.20;;;;;;;;;;5009924;28;20034;-71
2022/05/20 14:31:23;;;;;;;17.67;9.63;;;;;;;;;;5013390;28;20058;-72
2022/05/20 14:33:51;;;;;;;20.10;10.05;;;;;;;;;;5011333;28;20041;-71
2022/05/20 14:36:17;;;;;;;21.55;11.13;;;;;;;;;;5012001;28;20141;-71
2022/05/20 14:38:45;;;;;;;23.27;11.18;;;;;;;;;;5012850;28;20104;-71
2022/05/20 14:41:21;;;;;;;22.75;11.65;;;;;;;;;;5014297;28;20074;-71
2022/05/20 14:43:55;;;;;;;21.13;11.65;;;;;;;;;;5023363;28;20117;-71
2022/05/20 14:49:20;;;;;;;24.63;13.25;;;;;;;;;;5011321;28;20050;-71
2022/05/20 14:51:55;;;;;;;23.45;14.10;;;;;;;;;;5014803;28;20120;-71
2022/05/20 14:54:21;;;;;;;20.50;13.20;;;;;;;;;;5011901;28;20141;-70
2022/05/20 14:56:48;;;;;;;21.45;13.57;;;;;;;;;;5024062;28;20061;-71
2022/05/20 14:59:28;;;;;;;23.08;13.43;;;;;;;;;;5012377;28;20401;-72
2022/05/20 15:01:55;;;;;;;25.02;13.50;;;;;;;;;;5013329;28;20052;-71
2022/05/20 15:04:22;;;;;;;31.38;14.95;;;;;;;;;;5013826;28;20073;-70
2022/05/20 15:06:48;;;;;;;25.23;15.52;;;;;;;;;;5014096;28;20121;-71
2022/05/20 15:09:29;;;;;;;23.25;15.30;;;;;;;;;;5011956;28;20428;-70
2022/05/20 15:11:56;;;;;;;23.83;15.40;;;;;;;;;;5012001;28;20131;-70
2022/05/20 15:14:22;;;;;;;;;;;;;;;;;;5011338;28;20129;-68
2022/05/20 15:16:48;;;;;;;25.83;16.15;;;;;;;;;;5012002;28;19960;-70
2022/05/20 15:19:14;;;;;;;26.50;16.00;;;;;;;;;;5012690;28;20075;-68
2022/05/20 15:21:40;;;;;;;;;;;;;;;;;;5013261;28;20054;-66
2022/05/20 15:24:08;;;;;;;34.08;19.60;;;;;;;;;;5004907;28;20032;-68
2022/05/20 15:26:36;;;;;;;31.83;18.90;;;;;;;;;;5006732;28;20057;-67